sensor_id;sensor_type;location;lat;lon;timestamp;temperature;humidity
22161;DHT22;49035;48.812;11.762;2024-01-15T00:02:17;-3.40;99.90
22161;DHT22;49035;48.812;11.762;2024-01-15T00:04:43;-3.30;99.90
22161;DHT22;49035;48.812;11.762;2024-01-15T00:07:09;-3.30;99.90
22161;DHT22;49035;48.812;11.762;2024-01-15T00:09:35;-3.20;99.90
22161;DHT22;49035;48.812;11.762;2024-01-15T00:12:01;-3.20;99.90
22161;DHT22;49035;48.812;11.762;2024-01-15T00:14:27;-3.20;99.90
22161;DHT22;49035;48.812;11.762;2024-01-15T00:16:53;-3.10;99.90
22161;DHT22;49035;48.812;11.762;2024-01-15T00:19:21;-3.10;99.90
22161;DHT22;49035;48.812;11.762;2024-01-15T00:21:47;-3.10;99.90
22161;DHT22;49035;48.812;11.762;2024-01-15T00:24:13;-3.10;99.90
22161;DHT22;49035;48.812;11.762;2024-01-15T00:26:39;-3.20;99.90
22161;DHT22;49035;48.812;11.762;2024-01-15T00:29:07;-3.20;99.90
22161;DHT22;49035;48.812;11.762;2024-01-15T00:31:33;-3.20;99.90
22161;DHT22;49035;48.812;11.762;2024-01-15T00:33:58;-3.20;99.90
22161;DHT22;49035;48.812;11.762;2024-01-15T00:36:24;-3.20;99.90
22161;DHT22;49035;48.812;11.762;2024-01-15T00:38:49;-2.90;99.90
22161;DHT22;49035;48.812;11.762;2024-01-15T00:41:15;-3.20;99.90
22161;DHT22;49035;48.812;11.762;2024-01-15T00:43:41;-3.20;99.90
22161;DHT22;49035;48.812;11.762;2024-01-15T00:46:07;-3.20;99.90
22161;DHT22;49035;48.812;11.762;2024-01-15T00:48:33;-3.20;99.90
22161;DHT22;49035;48.812;11.762;2024-01-15T00:50:59;-3.20;99.90
22161;DHT22;49035;48.812;11.762;2024-01-15T00:53:25;-3.20;99.90
22161;DHT22;49035;48.812;11.762;2024-01-15T00:55:51;-3.20;99.90
22161;DHT22;49035;48.812;11.762;2024-01-15T00:58:16;-3.10;99.90
22161;DHT22;49035;48.812;11.762;2024-01-15T01:00:42;-3.10;99.90
22161;DHT22;49035;48.812;11.762;2024-01-15T01:03:08;-3.20;99.90
22161;DHT22;49035;48.812;11.762;2024-01-15T01:05:34;-3.10;99.90
22161;DHT22;49035;48.812;11.762;2024-01-15T01:08:00;-3.10;99.90
22161;DHT22;49035;48.812;11.762;2024-01-15T01:10:26;-3.10;99.90
22161;DHT22;49035;48.812;11.762;2024-01-15T01:12:52;-3.10;99.90
22161;DHT22;49035;48.812;11.762;2024-01-15T01:15:17;-3.10;99.90
22161;DHT22;49035;48.812;11.762;2024-01-15T01:17:43;-3.10;99.90
22161;DHT22;49035;48.812;11.762;2024-01-15T01:20:09;-3.10;99.90
22161;DHT22;49035;48.812;11.762;2024-01-15T01:22:35;-3.00;99.90
22161;DHT22;49035;48.812;11.762;2024-01-15T01:25:01;-3.00;99.90
22161;DHT22;49035;48.812;11.762;2024-01-15T01:27:27;-3.00;99.90
22161;DHT22;49035;48.812;11.762;2024-01-15T01:29:52;-3.00;99.90
22161;DHT22;49035;48.812;11.762;2024-01-15T01:32:18;-3.00;99.90
22161;DHT22;49035;48.812;11.762;2024-01-15T01:34:44;-2.90;99.90
22161;DHT22;49035;48.812;11.762;2024-01-15T01:37:10;-3.00;99.90
22161;DHT22;49035;48.812;11.762;2024-01-15T01:39:39;-2.90;99.90
22161;DHT22;49035;48.812;11.762;2024-01-15T01:42:05;-3.00;99.90
22161;DHT22;49035;48.812;11.762;2024-01-15T01:44:30;-3.00;99.90
22161;DHT22;49035;48.812;11.762;2024-01-15T01:46:57;-2.90;99.90
22161;DHT22;49035;48.812;11.762;2024-01-15T01:49:25;-2.90;99.90
22161;DHT22;49035;48.812;11.762;2024-01-15T01:51:51;-2.90;99.90
22161;DHT22;49035;48.812;11.762;2024-01-15T01:54:17;-2.90;99.90
22161;DHT22;49035;48.812;11.762;2024-01-15T01:56:43;-2.90;99.90
22161;DHT22;49035;48.812;11.762;2024-01-15T01:59:11;-2.80;99.90
22161;DHT22;49035;48.812;11.762;2024-01-15T02:01:37;-2.90;99.90
22161;DHT22;49035;48.812;11.762;2024-01-15T02:04:03;-2.80;99.90
22161;DHT22;49035;48.812;11.762;2024-01-15T02:06:29;-2.80;99.90
22161;DHT22;49035;48.812;11.762;2024-01-15T02:08:55;-2.80;99.90
22161;DHT22;49035;48.812;11.762;2024-01-15T02:11:21;-2.90;99.90
22161;DHT22;49035;48.812;11.762;2024-01-15T02:13:47;-3.00;99.90
22161;DHT22;49035;48.812;11.762;2024-01-15T02:16:12;-3.10;99.90
22161;DHT22;49035;48.812;11.762;2024-01-15T02:18:45;-3.10;99.90
22161;DHT22;49035;48.812;11.762;2024-01-15T02:21:12;-3.20;99.90
22161;DHT22;49035;48.812;11.762;2024-01-15T02:23:38;-3.20;99.90
22161;DHT22;49035;48.812;11.762;2024-01-15T02:26:05;-3.20;99.90
22161;DHT22;49035;48.812;11.762;2024-01-15T02:28:30;-3.20;99.90
22161;DHT22;49035;48.812;11.762;2024-01-15T02:30:57;-3.40;99.90
22161;DHT22;49035;48.812;11.762;2024-01-15T02:33:23;-3.40;99.90
22161;DHT22;49035;48.812;11.762;2024-01-15T02:35:48;-3.40;99.90
22161;DHT22;49035;48.812;11.762;2024-01-15T02:38:17;-3.30;99.90
22161;DHT22;49035;48.812;11.762;2024-01-15T02:40:44;-3.20;99.90
22161;DHT22;49035;48.812;11.762;2024-01-15T02:43:10;-3.20;99.90
22161;DHT22;49035;48.812;11.762;2024-01-15T02:45:36;-3.00;99.90
22161;DHT22;49035;48.812;11.762;2024-01-15T02:48:01;-2.90;99.90
22161;DHT22;49035;48.812;11.762;2024-01-15T02:50:27;-2.90;99.90
22161;DHT22;49035;48.812;11.762;2024-01-15T02:52:53;-2.80;99.90
22161;DHT22;49035;48.812;11.762;2024-01-15T02:55:18;-2.80;99.90
22161;DHT22;49035;48.812;11.762;2024-01-15T02:57:44;-2.80;99.90
22161;DHT22;49035;48.812;11.762;2024-01-15T03:00:10;-2.80;99.90
22161;DHT22;49035;48.812;11.762;2024-01-15T03:02:37;-2.80;99.90
22161;DHT22;49035;48.812;11.762;2024-01-15T03:05:06;-2.80;99.90
22161;DHT22;49035;48.812;11.762;2024-01-15T03:07:32;-2.70;99.90
22161;DHT22;49035;48.812;11.762;2024-01-15T03:09:58;-2.70;99.90
22161;DHT22;49035;48.812;11.762;2024-01-15T03:12:23;-2.70;99.90
22161;DHT22;49035;48.812;11.762;2024-01-15T03:14:49;-2.70;99.90
22161;DHT22;49035;48.812;11.762;2024-01-15T03:17:14;-2.60;99.90
22161;DHT22;49035;48.812;11.762;2024-01-15T03:19:40;-2.60;99.90
22161;DHT22;49035;48.812;11.762;2024-01-15T03:22:05;-2.60;99.90
22161;DHT22;49035;48.812;11.762;2024-01-15T03:24:33;-2.70;99.90
22161;DHT22;49035;48.812;11.762;2024-01-15T03:26:59;-2.70;99.90
22161;DHT22;49035;48.812;11.762;2024-01-15T03:29:25;-2.70;99.90
22161;DHT22;49035;48.812;11.762;2024-01-15T03:31:51;-2.80;99.90
22161;DHT22;49035;48.812;11.762;2024-01-15T03:34:17;-2.80;99.90
22161;DHT22;49035;48.812;11.762;2024-01-15T03:36:43;-2.80;99.90
22161;DHT22;49035;48.812;11.762;2024-01-15T03:39:08;-2.80;99.90
22161;DHT22;49035;48.812;11.762;2024-01-15T03:41:34;-2.70;99.90
22161;DHT22;49035;48.812;11.762;2024-01-15T03:43:59;-2.70;99.90
22161;DHT22;49035;48.812;11.762;2024-01-15T03:46:25;-2.60;99.90
22161;DHT22;49035;48.812;11.762;2024-01-15T03:48:50;-2.70;99.90
22161;DHT22;49035;48.812;11.762;2024-01-15T03:51:19;-2.70;99.90
22161;DHT22;49035;48.812;11.762;2024-01-15T03:53:45;-2.70;99.90
22161;DHT22;49035;48.812;11.762;2024-01-15T03:56:11;-2.80;99.90
22161;DHT22;49035;48.812;11.762;2024-01-15T03:58:37;-2.80;99.90
22161;DHT22;49035;48.812;11.762;2024-01-15T04:01:03;-2.80;99.90
22161;DHT22;49035;48.812;11.762;2024-01-15T04:03:28;-2.70;99.90
22161;DHT22;49035;48.812;11.762;2024-01-15T04:05:54;-2.80;99.90
22161;DHT22;49035;48.812;11.762;2024-01-15T04:08:20;-2.70;99.90
22161;DHT22;49035;48.812;11.762;2024-01-15T04:10:45;-2.60;99.90
22161;DHT22;49035;48.812;11.762;2024-01-15T04:13:11;-2.60;99.90
22161;DHT22;49035;48.812;11.762;2024-01-15T04:15:36;-2.40;99.90
22161;DHT22;49035;48.812;11.762;2024-01-15T04:18:03;-2.50;99.90
22161;DHT22;49035;48.812;11.762;2024-01-15T04:20:29;-2.40;99.90
22161;DHT22;49035;48.812;11.762;2024-01-15T04:22:54;-2.40;99.90
22161;DHT22;49035;48.812;11.762;2024-01-15T04:25:20;-2.40;99.90
22161;DHT22;49035;48.812;11.762;2024-01-15T04:27:45;-2.30;99.90
22161;DHT22;49035;48.812;11.762;2024-01-15T04:30:11;-2.30;99.90
22161;DHT22;49035;48.812;11.762;2024-01-15T04:32:37;-2.20;99.90
22161;DHT22;49035;48.812;11.762;2024-01-15T04:35:03;-2.20;99.90
22161;DHT22;49035;48.812;11.762;2024-01-15T04:37:28;-2.10;99.90
22161;DHT22;49035;48.812;11.762;2024-01-15T04:39:55;-2.20;99.90
22161;DHT22;49035;48.812;11.762;2024-01-15T04:42:22;-2.10;99.90
22161;DHT22;49035;48.812;11.762;2024-01-15T04:44:48;-2.00;99.90
22161;DHT22;49035;48.812;11.762;2024-01-15T04:47:14;-2.00;99.90
22161;DHT22;49035;48.812;11.762;2024-01-15T04:49:40;-1.90;99.90
22161;DHT22;49035;48.812;11.762;2024-01-15T04:52:05;-1.80;99.90
22161;DHT22;49035;48.812;11.762;2024-01-15T04:54:31;-1.80;99.90
22161;DHT22;49035;48.812;11.762;2024-01-15T04:56:56;-1.80;99.90
22161;DHT22;49035;48.812;11.762;2024-01-15T04:59:22;-1.80;99.90
22161;DHT22;49035;48.812;11.762;2024-01-15T05:01:48;-1.70;99.90
22161;DHT22;49035;48.812;11.762;2024-01-15T05:04:14;-1.70;99.90
22161;DHT22;49035;48.812;11.762;2024-01-15T05:06:40;-1.80;99.90
22161;DHT22;49035;48.812;11.762;2024-01-15T05:09:05;-1.80;99.90
22161;DHT22;49035;48.812;11.762;2024-01-15T05:11:31;-1.70;99.90
22161;DHT22;49035;48.812;11.762;2024-01-15T05:13:57;-1.70;99.90
22161;DHT22;49035;48.812;11.762;2024-01-15T05:16:22;-1.70;99.90
22161;DHT22;49035;48.812;11.762;2024-01-15T05:18:48;-1.70;99.90
22161;DHT22;49035;48.812;11.762;2024-01-15T05:21:13;-1.70;99.90
22161;DHT22;49035;48.812;11.762;2024-01-15T05:23:39;-1.70;99.90
22161;DHT22;49035;48.812;11.762;2024-01-15T05:26:04;-1.70;99.90
22161;DHT22;49035;48.812;11.762;2024-01-15T05:28:30;-1.70;99.90
22161;DHT22;49035;48.812;11.762;2024-01-15T05:30:56;-1.60;99.90
22161;DHT22;49035;48.812;11.762;2024-01-15T05:33:24;-1.70;99.90
22161;DHT22;49035;48.812;11.762;2024-01-15T05:35:50;-1.70;99.90
22161;DHT22;49035;48.812;11.762;2024-01-15T05:38:16;-1.70;99.90
22161;DHT22;49035;48.812;11.762;2024-01-15T05:40:42;-1.60;99.90
22161;DHT22;49035;48.812;11.762;2024-01-15T05:43:08;-1.60;99.90
22161;DHT22;49035;48.812;11.762;2024-01-15T05:45:34;-1.60;99.90
22161;DHT22;49035;48.812;11.762;2024-01-15T05:48:01;-1.50;99.90
22161;DHT22;49035;48.812;11.762;2024-01-15T05:50:26;-1.60;99.90
22161;DHT22;49035;48.812;11.762;2024-01-15T05:52:52;-1.50;99.90
22161;DHT22;49035;48.812;11.762;2024-01-15T05:55:18;-1.50;99.90
22161;DHT22;49035;48.812;11.762;2024-01-15T05:57:44;-1.40;99.90
22161;DHT22;49035;48.812;11.762;2024-01-15T06:00:10;-1.50;99.90
22161;DHT22;49035;48.812;11.762;2024-01-15T06:02:39;-1.50;99.90
22161;DHT22;49035;48.812;11.762;2024-01-15T06:05:05;-1.40;99.90
22161;DHT22;49035;48.812;11.762;2024-01-15T06:07:32;-1.30;99.90
22161;DHT22;49035;48.812;11.762;2024-01-15T06:09:57;-1.30;99.90
22161;DHT22;49035;48.812;11.762;2024-01-15T06:12:23;-1.30;99.90
22161;DHT22;49035;48.812;11.762;2024-01-15T06:14:48;-1.30;99.90
22161;DHT22;49035;48.812;11.762;2024-01-15T06:17:14;-1.20;99.90
22161;DHT22;49035;48.812;11.762;2024-01-15T06:19:40;-1.20;99.90
22161;DHT22;49035;48.812;11.762;2024-01-15T06:22:05;-1.20;99.90
22161;DHT22;49035;48.812;11.762;2024-01-15T06:24:31;-1.10;99.90
22161;DHT22;49035;48.812;11.762;2024-01-15T06:26:56;-1.10;99.90
22161;DHT22;49035;48.812;11.762;2024-01-15T06:29:25;-1.10;99.90
22161;DHT22;49035;48.812;11.762;2024-01-15T06:31:50;-1.10;99.90
22161;DHT22;49035;48.812;11.762;2024-01-15T06:34:16;-1.10;99.90
22161;DHT22;49035;48.812;11.762;2024-01-15T06:36:42;-1.00;99.90
22161;DHT22;49035;48.812;11.762;2024-01-15T06:39:07;-1.00;99.90
22161;DHT22;49035;48.812;11.762;2024-01-15T06:41:33;-1.00;99.90
22161;DHT22;49035;48.812;11.762;2024-01-15T06:43:58;-1.00;99.90
22161;DHT22;49035;48.812;11.762;2024-01-15T06:46:24;-1.00;99.90
22161;DHT22;49035;48.812;11.762;2024-01-15T06:48:49;-1.00;99.90
22161;DHT22;49035;48.812;11.762;2024-01-15T06:51:16;-1.00;99.90
22161;DHT22;49035;48.812;11.762;2024-01-15T06:53:41;-1.00;99.90
22161;DHT22;49035;48.812;11.762;2024-01-15T06:56:07;-1.00;99.90
22161;DHT22;49035;48.812;11.762;2024-01-15T06:58:33;-1.00;99.90
22161;DHT22;49035;48.812;11.762;2024-01-15T07:00:59;-1.00;99.90
22161;DHT22;49035;48.812;11.762;2024-01-15T07:03:25;-1.00;99.90
22161;DHT22;49035;48.812;11.762;2024-01-15T07:05:51;-1.00;99.90
22161;DHT22;49035;48.812;11.762;2024-01-15T07:08:19;-1.00;99.90
22161;DHT22;49035;48.812;11.762;2024-01-15T07:10:45;-1.00;99.90
22161;DHT22;49035;48.812;11.762;2024-01-15T07:13:11;-1.00;99.90
22161;DHT22;49035;48.812;11.762;2024-01-15T07:15:36;-1.00;99.90
22161;DHT22;49035;48.812;11.762;2024-01-15T07:18:02;-1.00;99.90
22161;DHT22;49035;48.812;11.762;2024-01-15T07:20:28;-1.00;99.90
22161;DHT22;49035;48.812;11.762;2024-01-15T07:22:54;-1.00;99.90
22161;DHT22;49035;48.812;11.762;2024-01-15T07:25:19;-0.90;99.90
22161;DHT22;49035;48.812;11.762;2024-01-15T07:27:45;-0.90;99.90
22161;DHT22;49035;48.812;11.762;2024-01-15T07:30:12;-0.90;99.90
22161;DHT22;49035;48.812;11.762;2024-01-15T07:32:37;-0.90;99.90
22161;DHT22;49035;48.812;11.762;2024-01-15T07:35:04;-0.90;99.90
22161;DHT22;49035;48.812;11.762;2024-01-15T07:37:29;-0.80;99.90
22161;DHT22;49035;48.812;11.762;2024-01-15T07:39:55;-0.80;99.90
22161;DHT22;49035;48.812;11.762;2024-01-15T07:42:20;-0.70;99.90
22161;DHT22;49035;48.812;11.762;2024-01-15T07:44:46;-0.70;99.90
22161;DHT22;49035;48.812;11.762;2024-01-15T07:47:12;-0.70;99.90
22161;DHT22;49035;48.812;11.762;2024-01-15T07:49:38;-0.60;99.90
22161;DHT22;49035;48.812;11.762;2024-01-15T07:52:03;-0.60;99.90
22161;DHT22;49035;48.812;11.762;2024-01-15T07:54:31;-0.50;99.90
22161;DHT22;49035;48.812;11.762;2024-01-15T07:56:57;-0.50;99.90
22161;DHT22;49035;48.812;11.762;2024-01-15T07:59:23;-0.40;99.90
22161;DHT22;49035;48.812;11.762;2024-01-15T08:01:50;-0.40;99.90
22161;DHT22;49035;48.812;11.762;2024-01-15T08:04:16;-0.30;99.90
22161;DHT22;49035;48.812;11.762;2024-01-15T08:06:41;-0.30;99.90
22161;DHT22;49035;48.812;11.762;2024-01-15T08:09:07;-0.30;99.90
22161;DHT22;49035;48.812;11.762;2024-01-15T08:11:34;-0.30;99.90
22161;DHT22;49035;48.812;11.762;2024-01-15T08:13:59;-0.20;99.90
22161;DHT22;49035;48.812;11.762;2024-01-15T08:16:25;-0.10;99.90
22161;DHT22;49035;48.812;11.762;2024-01-15T08:18:50;-0.10;99.90
22161;DHT22;49035;48.812;11.762;2024-01-15T08:21:16;-0.10;99.90
22161;DHT22;49035;48.812;11.762;2024-01-15T08:23:42;-0.10;99.90
22161;DHT22;49035;48.812;11.762;2024-01-15T08:26:07;0.00;99.90
22161;DHT22;49035;48.812;11.762;2024-01-15T08:28:34;0.00;99.90
22161;DHT22;49035;48.812;11.762;2024-01-15T08:31:00;0.00;99.90
22161;DHT22;49035;48.812;11.762;2024-01-15T08:33:44;0.10;99.90
22161;DHT22;49035;48.812;11.762;2024-01-15T08:36:18;0.00;99.90
22161;DHT22;49035;48.812;11.762;2024-01-15T08:38:57;0.00;99.90
22161;DHT22;49035;48.812;11.762;2024-01-15T08:41:40;0.00;99.90
22161;DHT22;49035;48.812;11.762;2024-01-15T08:44:06;0.30;99.90
22161;DHT22;49035;48.812;11.762;2024-01-15T08:49:39;0.10;99.90
22161;DHT22;49035;48.812;11.762;2024-01-15T08:52:06;0.40;99.90
22161;DHT22;49035;48.812;11.762;2024-01-15T08:54:39;0.40;99.90
22161;DHT22;49035;48.812;11.762;2024-01-15T08:57:05;0.30;99.90
22161;DHT22;49035;48.812;11.762;2024-01-15T08:59:39;0.40;99.90
22161;DHT22;49035;48.812;11.762;2024-01-15T09:02:08;0.30;99.90
22161;DHT22;49035;48.812;11.762;2024-01-15T09:04:50;0.90;99.90
22161;DHT22;49035;48.812;11.762;2024-01-15T09:07:16;0.90;99.90
22161;DHT22;49035;48.812;11.762;2024-01-15T09:09:41;0.80;99.90
22161;DHT22;49035;48.812;11.762;2024-01-15T09:12:08;0.90;99.90
22161;DHT22;49035;48.812;11.762;2024-01-15T09:14:47;0.80;99.90
22161;DHT22;49035;48.812;11.762;2024-01-15T09:17:20;0.80;99.90
22161;DHT22;49035;48.812;11.762;2024-01-15T09:20:00;0.90;99.90
22161;DHT22;49035;48.812;11.762;2024-01-15T09:22:33;0.90;99.90
22161;DHT22;49035;48.812;11.762;2024-01-15T09:25:04;0.90;99.90
22161;DHT22;49035;48.812;11.762;2024-01-15T09:27:33;1.00;99.90
22161;DHT22;49035;48.812;11.762;2024-01-15T09:30:12;1.10;99.90
22161;DHT22;49035;48.812;11.762;2024-01-15T09:32:40;1.20;99.90
22161;DHT22;49035;48.812;11.762;2024-01-15T09:35:06;1.40;99.90
22161;DHT22;49035;48.812;11.762;2024-01-15T09:37:32;1.20;99.90
22161;DHT22;49035;48.812;11.762;2024-01-15T09:40:04;1.50;99.90
22161;DHT22;49035;48.812;11.762;2024-01-15T09:42:34;1.40;99.90
22161;DHT22;49035;48.812;11.762;2024-01-15T09:45:04;1.30;99.90
22161;DHT22;49035;48.812;11.762;2024-01-15T09:47:36;1.20;99.90
22161;DHT22;49035;48.812;11.762;2024-01-15T09:50:10;1.20;99.90
22161;DHT22;49035;48.812;11.762;2024-01-15T09:52:36;1.60;99.90
22161;DHT22;49035;48.812;11.762;2024-01-15T09:55:20;1.70;99.90
22161;DHT22;49035;48.812;11.762;2024-01-15T09:57:46;1.90;99.90
22161;DHT22;49035;48.812;11.762;2024-01-15T10:00:14;2.00;99.90
22161;DHT22;49035;48.812;11.762;2024-01-15T10:02:42;1.90;99.90
22161;DHT22;49035;48.812;11.762;2024-01-15T10:05:10;1.90;99.90
22161;DHT22;49035;48.812;11.762;2024-01-15T10:07:37;1.70;99.90
22161;DHT22;49035;48.812;11.762;2024-01-15T10:10:04;2.00;99.90
22161;DHT22;49035;48.812;11.762;2024-01-15T10:12:29;2.10;99.90
22161;DHT22;49035;48.812;11.762;2024-01-15T10:14:56;2.10;99.90
22161;DHT22;49035;48.812;11.762;2024-01-15T10:17:22;1.90;99.90
22161;DHT22;49035;48.812;11.762;2024-01-15T10:19:47;1.90;99.90
22161;DHT22;49035;48.812;11.762;2024-01-15T10:22:14;1.80;99.90
22161;DHT22;49035;48.812;11.762;2024-01-15T10:24:41;1.80;99.90
22161;DHT22;49035;48.812;11.762;2024-01-15T10:27:10;1.80;99.90
22161;DHT22;49035;48.812;11.762;2024-01-15T10:29:36;1.80;99.90
22161;DHT22;49035;48.812;11.762;2024-01-15T10:32:09;1.90;99.90
22161;DHT22;49035;48.812;11.762;2024-01-15T10:34:38;2.00;99.90
22161;DHT22;49035;48.812;11.762;2024-01-15T10:37:04;2.00;99.90
22161;DHT22;49035;48.812;11.762;2024-01-15T10:39:30;1.90;99.90
22161;DHT22;49035;48.812;11.762;2024-01-15T10:41:56;2.10;99.90
22161;DHT22;49035;48.812;11.762;2024-01-15T10:44:21;2.00;99.90
22161;DHT22;49035;48.812;11.762;2024-01-15T10:46:47;2.00;99.90
22161;DHT22;49035;48.812;11.762;2024-01-15T10:49:13;2.10;99.90
22161;DHT22;49035;48.812;11.762;2024-01-15T10:51:39;2.00;99.90
22161;DHT22;49035;48.812;11.762;2024-01-15T10:54:09;2.00;99.90
22161;DHT22;49035;48.812;11.762;2024-01-15T10:56:37;1.90;99.90
22161;DHT22;49035;48.812;11.762;2024-01-15T10:59:03;1.80;99.90
22161;DHT22;49035;48.812;11.762;2024-01-15T11:01:30;1.90;99.90
22161;DHT22;49035;48.812;11.762;2024-01-15T11:03:56;1.90;99.90
22161;DHT22;49035;48.812;11.762;2024-01-15T11:06:24;2.10;99.90
22161;DHT22;49035;48.812;11.762;2024-01-15T11:08:51;1.90;99.90
22161;DHT22;49035;48.812;11.762;2024-01-15T11:11:17;2.10;99.90
22161;DHT22;49035;48.812;11.762;2024-01-15T11:13:46;2.10;99.90
22161;DHT22;49035;48.812;11.762;2024-01-15T11:16:13;2.20;99.90
22161;DHT22;49035;48.812;11.762;2024-01-15T11:19:01;2.10;99.90
22161;DHT22;49035;48.812;11.762;2024-01-15T11:21:27;2.60;99.90
22161;DHT22;49035;48.812;11.762;2024-01-15T11:23:56;2.80;99.90
22161;DHT22;49035;48.812;11.762;2024-01-15T11:29:07;3.10;99.50
22161;DHT22;49035;48.812;11.762;2024-01-15T11:34:09;3.00;99.60
22161;DHT22;49035;48.812;11.762;2024-01-15T11:39:39;3.20;98.90
22161;DHT22;49035;48.812;11.762;2024-01-15T11:42:05;3.10;98.60
22161;DHT22;49035;48.812;11.762;2024-01-15T11:44:31;3.00;98.70
22161;DHT22;49035;48.812;11.762;2024-01-15T11:47:06;2.80;99.10
22161;DHT22;49035;48.812;11.762;2024-01-15T11:52:35;2.60;99.20
22161;DHT22;49035;48.812;11.762;2024-01-15T11:55:26;2.50;99.80
22161;DHT22;49035;48.812;11.762;2024-01-15T11:57:54;2.50;99.90
22161;DHT22;49035;48.812;11.762;2024-01-15T12:00:21;2.40;99.90
22161;DHT22;49035;48.812;11.762;2024-01-15T12:02:47;2.40;99.90
22161;DHT22;49035;48.812;11.762;2024-01-15T12:05:15;2.30;99.90
22161;DHT22;49035;48.812;11.762;2024-01-15T12:07:46;2.30;99.90
22161;DHT22;49035;48.812;11.762;2024-01-15T12:10:13;2.30;99.90
22161;DHT22;49035;48.812;11.762;2024-01-15T12:15:21;2.10;99.90
22161;DHT22;49035;48.812;11.762;2024-01-15T12:17:47;2.00;99.90
22161;DHT22;49035;48.812;11.762;2024-01-15T12:20:13;1.90;99.90
22161;DHT22;49035;48.812;11.762;2024-01-15T12:22:39;1.80;99.90
22161;DHT22;49035;48.812;11.762;2024-01-15T12:25:05;1.80;99.90
22161;DHT22;49035;48.812;11.762;2024-01-15T12:27:31;1.70;99.90
22161;DHT22;49035;48.812;11.762;2024-01-15T12:29:58;1.60;99.90
22161;DHT22;49035;48.812;11.762;2024-01-15T12:32:24;1.60;99.90
22161;DHT22;49035;48.812;11.762;2024-01-15T12:34:50;1.60;99.90
22161;DHT22;49035;48.812;11.762;2024-01-15T12:37:18;1.60;99.90
22161;DHT22;49035;48.812;11.762;2024-01-15T12:39:44;1.50;99.90
22161;DHT22;49035;48.812;11.762;2024-01-15T12:42:10;1.40;99.90
22161;DHT22;49035;48.812;11.762;2024-01-15T12:44:36;1.50;99.90
22161;DHT22;49035;48.812;11.762;2024-01-15T12:47:04;1.40;99.90
22161;DHT22;49035;48.812;11.762;2024-01-15T12:49:30;1.50;99.90
22161;DHT22;49035;48.812;11.762;2024-01-15T12:51:59;1.60;99.90
22161;DHT22;49035;48.812;11.762;2024-01-15T12:54:25;1.60;99.90
22161;DHT22;49035;48.812;11.762;2024-01-15T12:56:51;1.60;99.90
22161;DHT22;49035;48.812;11.762;2024-01-15T12:59:18;1.60;99.90
22161;DHT22;49035;48.812;11.762;2024-01-15T13:01:44;1.50;99.90
22161;DHT22;49035;48.812;11.762;2024-01-15T13:04:10;1.40;99.90
22161;DHT22;49035;48.812;11.762;2024-01-15T13:06:36;1.40;99.90
22161;DHT22;49035;48.812;11.762;2024-01-15T13:09:05;1.40;99.90
22161;DHT22;49035;48.812;11.762;2024-01-15T13:11:32;1.50;99.90
22161;DHT22;49035;48.812;11.762;2024-01-15T13:13:57;1.60;99.90
22161;DHT22;49035;48.812;11.762;2024-01-15T13:16:23;1.60;99.90
22161;DHT22;49035;48.812;11.762;2024-01-15T13:18:52;1.60;99.90
22161;DHT22;49035;48.812;11.762;2024-01-15T13:21:18;1.60;99.90
22161;DHT22;49035;48.812;11.762;2024-01-15T13:23:43;1.70;99.90
22161;DHT22;49035;48.812;11.762;2024-01-15T13:26:09;1.70;99.90
22161;DHT22;49035;48.812;11.762;2024-01-15T13:28:35;1.60;99.90
22161;DHT22;49035;48.812;11.762;2024-01-15T13:31:00;1.60;99.90
22161;DHT22;49035;48.812;11.762;2024-01-15T13:33:26;1.60;99.90
22161;DHT22;49035;48.812;11.762;2024-01-15T13:35:52;1.50;99.90
22161;DHT22;49035;48.812;11.762;2024-01-15T13:38:21;1.50;99.90
22161;DHT22;49035;48.812;11.762;2024-01-15T13:40:46;1.30;99.90
22161;DHT22;49035;48.812;11.762;2024-01-15T13:43:12;1.20;99.90
22161;DHT22;49035;48.812;11.762;2024-01-15T13:45:41;1.20;99.90
22161;DHT22;49035;48.812;11.762;2024-01-15T13:48:06;1.10;99.90
22161;DHT22;49035;48.812;11.762;2024-01-15T13:50:34;1.10;99.90
22161;DHT22;49035;48.812;11.762;2024-01-15T13:53:00;1.00;99.90
22161;DHT22;49035;48.812;11.762;2024-01-15T13:55:26;0.70;99.90
22161;DHT22;49035;48.812;11.762;2024-01-15T13:57:51;0.60;99.90
22161;DHT22;49035;48.812;11.762;2024-01-15T14:00:17;0.60;99.90
22161;DHT22;49035;48.812;11.762;2024-01-15T14:02:45;0.50;99.90
22161;DHT22;49035;48.812;11.762;2024-01-15T14:05:12;0.40;99.90
22161;DHT22;49035;48.812;11.762;2024-01-15T14:07:38;0.30;99.90
22161;DHT22;49035;48.812;11.762;2024-01-15T14:10:05;0.30;99.90
22161;DHT22;49035;48.812;11.762;2024-01-15T14:12:33;0.30;99.90
22161;DHT22;49035;48.812;11.762;2024-01-15T14:14:59;0.20;99.90
22161;DHT22;49035;48.812;11.762;2024-01-15T14:17:25;0.10;99.90
22161;DHT22;49035;48.812;11.762;2024-01-15T14:19:51;0.10;99.90
22161;DHT22;49035;48.812;11.762;2024-01-15T14:22:16;0.10;99.90
22161;DHT22;49035;48.812;11.762;2024-01-15T14:24:42;0.10;99.90
22161;DHT22;49035;48.812;11.762;2024-01-15T14:27:07;0.10;99.90
22161;DHT22;49035;48.812;11.762;2024-01-15T14:29:33;0.20;99.90
22161;DHT22;49035;48.812;11.762;2024-01-15T14:31:59;0.20;99.90
22161;DHT22;49035;48.812;11.762;2024-01-15T14:34:25;0.30;99.90
22161;DHT22;49035;48.812;11.762;2024-01-15T14:36:54;0.30;99.90
22161;DHT22;49035;48.812;11.762;2024-01-15T14:39:21;0.30;99.90
22161;DHT22;49035;48.812;11.762;2024-01-15T14:41:47;0.30;99.90
22161;DHT22;49035;48.812;11.762;2024-01-15T14:44:13;0.40;99.90
22161;DHT22;49035;48.812;11.762;2024-01-15T14:46:39;0.30;99.90
22161;DHT22;49035;48.812;11.762;2024-01-15T14:49:04;0.30;99.90
22161;DHT22;49035;48.812;11.762;2024-01-15T14:51:30;0.30;99.90
22161;DHT22;49035;48.812;11.762;2024-01-15T14:53:56;0.20;99.90
22161;DHT22;49035;48.812;11.762;2024-01-15T14:56:21;0.20;99.90
22161;DHT22;49035;48.812;11.762;2024-01-15T14:58:47;0.20;99.90
22161;DHT22;49035;48.812;11.762;2024-01-15T15:01:13;0.10;99.90
22161;DHT22;49035;48.812;11.762;2024-01-15T15:03:39;0.20;99.90
22161;DHT22;49035;48.812;11.762;2024-01-15T15:06:04;0.30;99.90
22161;DHT22;49035;48.812;11.762;2024-01-15T15:08:32;0.30;99.90
22161;DHT22;49035;48.812;11.762;2024-01-15T15:10:58;0.20;99.90
22161;DHT22;49035;48.812;11.762;2024-01-15T15:13:24;0.20;99.90
22161;DHT22;49035;48.812;11.762;2024-01-15T15:15:51;0.10;99.90
22161;DHT22;49035;48.812;11.762;2024-01-15T15:18:17;0.10;99.90
22161;DHT22;49035;48.812;11.762;2024-01-15T15:20:43;0.10;99.90
22161;DHT22;49035;48.812;11.762;2024-01-15T15:23:08;0.10;99.90
22161;DHT22;49035;48.812;11.762;2024-01-15T15:25:36;0.10;99.90
22161;DHT22;49035;48.812;11.762;2024-01-15T15:28:02;0.00;99.90
22161;DHT22;49035;48.812;11.762;2024-01-15T15:30:33;0.00;99.90
22161;DHT22;49035;48.812;11.762;2024-01-15T15:32:58;0.00;99.90
22161;DHT22;49035;48.812;11.762;2024-01-15T15:35:24;0.10;99.90
22161;DHT22;49035;48.812;11.762;2024-01-15T15:37:49;-0.20;99.90